createdAt,value
2023-09-28T00:00:39.998Z,5.47
2023-09-28T00:03:11.366Z,4.97
2023-09-28T00:05:44.126Z,4.00
2023-09-28T00:08:16.013Z,5.07
2023-09-28T00:10:45.503Z,4.80
2023-09-28T00:13:14.808Z,4.47
2023-09-28T00:15:43.833Z,5.13
2023-09-28T00:18:15.416Z,4.97
2023-09-28T00:20:47.382Z,3.70
2023-09-28T00:23:18.986Z,4.97
2023-09-28T00:25:48.307Z,5.53
2023-09-28T00:28:17.764Z,5.03
2023-09-28T00:30:50.043Z,6.37
2023-09-28T00:33:21.999Z,5.57
2023-09-28T00:35:51.050Z,4.60
2023-09-28T00:38:20.224Z,5.20
2023-09-28T00:40:52.025Z,5.37
2023-09-28T00:43:26.976Z,5.13
2023-09-28T00:45:56.112Z,4.93
2023-09-28T00:48:26.314Z,5.00
2023-09-28T00:50:53.700Z,4.60
2023-09-28T00:53:28.638Z,4.73
2023-09-28T00:56:01.749Z,4.63
2023-09-28T00:58:30.994Z,5.07
2023-09-28T01:01:05.249Z,5.77
2023-09-28T01:03:36.577Z,5.73
2023-09-28T01:06:09.092Z,5.20
2023-09-28T01:08:38.466Z,5.87
2023-09-28T01:11:07.781Z,4.67
2023-09-28T01:13:40.624Z,5.03
2023-09-28T01:16:10.632Z,5.67
2023-09-28T01:18:37.606Z,6.00
2023-09-28T01:21:07.852Z,5.93
2023-09-28T01:23:41.200Z,6.23
2023-09-28T01:26:10.318Z,5.53
2023-09-28T01:28:39.906Z,5.60
2023-09-28T01:31:11.588Z,5.73
2023-09-28T01:33:44.112Z,6.13
2023-09-28T01:36:15.917Z,5.60
2023-09-28T01:39:01.904Z,6.67
2023-09-28T01:41:35.986Z,5.77
2023-09-28T01:44:05.119Z,5.67
2023-09-28T01:46:32.070Z,5.73
2023-09-28T01:48:59.508Z,5.23
2023-09-28T01:51:28.964Z,5.87
2023-09-28T01:54:02.957Z,5.17
2023-09-28T01:56:36.998Z,4.67
2023-09-28T01:59:06.488Z,5.80
2023-09-28T02:01:35.840Z,4.93
2023-09-28T02:04:02.700Z,4.57
2023-09-28T02:06:31.865Z,5.13
2023-09-28T02:09:01.034Z,5.33
2023-09-28T02:11:30.147Z,4.77
2023-09-28T02:14:00.064Z,5.40
2023-09-28T02:16:28.042Z,4.63
2023-09-28T02:18:57.223Z,5.80
2023-09-28T02:21:31.357Z,5.43
2023-09-28T02:24:06.216Z,5.00
2023-09-28T02:26:35.457Z,5.27
2023-09-28T02:29:02.499Z,4.47
2023-09-28T02:31:39.038Z,4.87
2023-09-28T02:34:08.694Z,5.93
2023-09-28T02:36:38.115Z,6.17
2023-09-28T02:39:06.908Z,5.47
2023-09-28T02:41:36.894Z,4.87
2023-09-28T02:44:07.024Z,4.93
2023-09-28T02:46:39.491Z,5.17
2023-09-28T02:49:09.979Z,5.30
2023-09-28T02:51:36.782Z,6.10
2023-09-28T02:54:06.791Z,5.63
2023-09-28T02:56:41.453Z,5.70
2023-09-28T02:59:08.938Z,5.13
2023-09-28T03:01:37.995Z,5.03
2023-09-28T03:04:09.692Z,4.67
2023-09-28T03:06:41.799Z,4.30
2023-09-28T03:09:10.906Z,4.60
2023-09-28T03:11:42.661Z,5.30
2023-09-28T03:14:12.354Z,4.83
2023-09-28T03:16:44.129Z,5.37
2023-09-28T03:19:15.648Z,4.40
2023-09-28T03:21:50.567Z,4.37
2023-09-28T03:24:19.631Z,4.57
2023-09-28T03:27:00.297Z,4.77
2023-09-28T03:29:37.186Z,4.93
2023-09-28T03:32:04.069Z,4.60
2023-09-28T03:34:36.353Z,4.57
2023-09-28T03:37:05.842Z,4.37
2023-09-28T03:39:35.080Z,4.43
2023-09-28T03:42:04.330Z,4.70
2023-09-28T03:44:36.036Z,4.30
2023-09-28T03:47:11.362Z,4.10
2023-09-28T03:49:39.057Z,4.50
2023-09-28T03:52:08.313Z,4.40
2023-09-28T03:54:35.089Z,4.23
2023-09-28T03:57:04.761Z,4.63
2023-09-28T03:59:34.613Z,4.27
2023-09-28T04:02:01.635Z,4.43
2023-09-28T04:04:31.474Z,5.00
2023-09-28T04:07:02.956Z,4.13
2023-09-28T04:09:30.653Z,4.03
2023-09-28T04:12:05.288Z,3.87
2023-09-28T04:14:34.882Z,4.00
2023-09-28T04:17:02.127Z,3.20
2023-09-28T04:19:36.832Z,3.67
2023-09-28T04:22:03.622Z,3.80
2023-09-28T04:24:34.906Z,3.90
2023-09-28T04:27:04.022Z,4.30
2023-09-28T04:29:33.344Z,3.90
2023-09-28T04:32:03.106Z,4.40
2023-09-28T04:34:32.600Z,4.60
2023-09-28T04:36:59.551Z,3.93
2023-09-28T04:39:31.352Z,3.30
2023-09-28T04:41:59.709Z,3.40
2023-09-28T04:44:31.146Z,4.13
2023-09-28T04:47:00.232Z,3.40
2023-09-28T04:49:32.105Z,3.37
2023-09-28T04:52:00.640Z,4.33
2023-09-28T04:54:29.607Z,3.77
2023-09-28T04:57:01.641Z,3.80
2023-09-28T04:59:33.655Z,3.50
2023-09-28T05:02:02.663Z,3.97
2023-09-28T05:04:32.150Z,3.57
2023-09-28T05:07:01.743Z,3.53
2023-09-28T05:09:28.946Z,3.60
2023-09-28T05:11:57.672Z,3.50
2023-09-28T05:14:26.946Z,3.20
2023-09-28T05:16:55.922Z,3.50
2023-09-28T05:19:31.695Z,3.43
2023-09-28T05:21:58.714Z,3.77
2023-09-28T05:24:25.669Z,4.27
2023-09-28T05:26:52.545Z,3.10
2023-09-28T05:29:19.367Z,3.87
2023-09-28T05:31:48.732Z,4.00
2023-09-28T05:34:20.716Z,3.13
2023-09-28T05:36:47.562Z,3.53
2023-09-28T05:39:19.897Z,3.93
2023-09-28T05:41:47.299Z,4.70
2023-09-28T05:44:18.747Z,3.33
2023-09-28T05:46:45.555Z,3.67
2023-09-28T05:49:17.221Z,3.87
2023-09-28T05:51:49.544Z,3.27
2023-09-28T05:54:20.958Z,3.77
2023-09-28T05:56:52.676Z,3.20
2023-09-28T05:59:21.812Z,4.13
2023-09-28T06:01:50.260Z,4.10
2023-09-28T06:04:19.443Z,6.40
2023-09-28T06:06:51.891Z,5.00
2023-09-28T06:09:25.433Z,3.80
2023-09-28T06:11:58.824Z,4.93
2023-09-28T06:14:29.247Z,4.83
2023-09-28T06:16:58.405Z,3.40
2023-09-28T06:19:29.806Z,5.80
2023-09-28T06:22:02.226Z,6.37
2023-09-28T06:24:31.507Z,5.37
2023-09-28T06:26:58.485Z,5.10
2023-09-28T06:29:32.462Z,4.20
2023-09-28T06:32:02.852Z,4.20
2023-09-28T06:34:31.975Z,3.63
2023-09-28T06:37:03.474Z,3.50
2023-09-28T06:39:32.806Z,4.37
2023-09-28T06:42:16.599Z,3.70
2023-09-28T06:44:54.553Z,4.00
2023-09-28T06:47:27.502Z,3.90
2023-09-28T06:50:01.235Z,4.80
2023-09-28T06:52:34.265Z,4.90
2023-09-28T06:55:09.234Z,4.67
2023-09-28T06:57:38.551Z,3.57
2023-09-28T07:00:11.017Z,3.90
2023-09-28T07:02:38.164Z,3.70
2023-09-28T07:05:07.596Z,3.87
2023-09-28T07:07:36.797Z,3.73
2023-09-28T07:10:06.186Z,3.83
2023-09-28T07:12:33.037Z,4.17
2023-09-28T07:14:59.935Z,3.90
2023-09-28T07:17:31.605Z,3.90
2023-09-28T07:20:06.633Z,4.10
2023-09-28T07:22:40.849Z,3.70
2023-09-28T07:25:10.615Z,3.50
2023-09-28T07:27:42.261Z,3.70
2023-09-28T07:30:14.114Z,4.20
2023-09-28T07:32:43.304Z,3.50
2023-09-28T07:35:13.128Z,2.80
2023-09-28T07:37:48.463Z,3.87
2023-09-28T07:40:40.663Z,2.97
2023-09-28T07:43:17.386Z,3.90
2023-09-28T07:45:51.614Z,3.50
2023-09-28T07:48:23.102Z,3.70
2023-09-28T07:50:50.143Z,3.97
2023-09-28T07:53:20.785Z,4.40
2023-09-28T07:55:50.152Z,4.23
2023-09-28T07:58:26.277Z,3.70
2023-09-28T08:01:03.024Z,4.87
2023-09-28T08:03:36.113Z,3.63
2023-09-28T08:06:05.181Z,4.43
2023-09-28T08:08:32.309Z,3.87
2023-09-28T08:11:00.823Z,4.07
2023-09-28T08:13:30.124Z,3.70
2023-09-28T08:15:57.048Z,3.50
2023-09-28T08:18:27.752Z,3.70
2023-09-28T08:21:09.334Z,3.50
2023-09-28T08:23:41.816Z,3.80
2023-09-28T08:26:13.666Z,3.60
2023-09-28T08:28:42.794Z,4.87
2023-09-28T08:31:13.418Z,4.87
2023-09-28T08:33:42.660Z,4.13
2023-09-28T08:36:12.001Z,3.83
2023-09-28T08:38:43.796Z,3.30
2023-09-28T08:41:14.311Z,3.63
2023-09-28T08:43:44.642Z,4.20
2023-09-28T08:46:16.342Z,3.93
2023-09-28T08:48:48.907Z,3.30
2023-09-28T08:51:19.862Z,3.80
2023-09-28T08:53:51.840Z,3.67
2023-09-28T08:56:21.405Z,4.03
2023-09-28T08:58:51.243Z,4.17
2023-09-28T09:01:19.115Z,5.00
2023-09-28T09:03:51.622Z,3.87
2023-09-28T09:06:23.867Z,3.53
2023-09-28T09:09:01.827Z,4.30
2023-09-28T09:11:36.400Z,4.63
2023-09-28T09:14:08.104Z,3.67
2023-09-28T09:16:40.319Z,4.23
2023-09-28T09:19:18.163Z,3.50
2023-09-28T09:21:51.281Z,4.03
2023-09-28T09:24:25.164Z,2.97
2023-09-28T09:26:54.829Z,3.30
2023-09-28T09:29:24.085Z,3.23
2023-09-28T09:31:55.892Z,3.50
2023-09-28T09:34:27.604Z,3.77
2023-09-28T09:37:03.321Z,4.00
2023-09-28T09:39:33.472Z,3.30
2023-09-28T09:42:05.499Z,4.70
2023-09-28T09:44:37.024Z,3.80
2023-09-28T09:47:08.796Z,3.40
2023-09-28T09:49:38.559Z,4.20
2023-09-28T09:52:09.594Z,3.80
2023-09-28T09:54:37.835Z,3.90
2023-09-28T09:57:13.125Z,3.83
2023-09-28T09:59:48.231Z,3.67
2023-09-28T10:02:28.206Z,3.93
2023-09-28T10:05:03.036Z,3.40
2023-09-28T10:07:47.419Z,3.53
2023-09-28T10:10:20.670Z,3.13
2023-09-28T10:12:53.598Z,4.03
2023-09-28T10:15:20.806Z,3.30
2023-09-28T10:17:55.416Z,2.97
2023-09-28T10:20:25.399Z,3.33
2023-09-28T10:22:52.351Z,3.70
2023-09-28T10:25:23.876Z,3.83
2023-09-28T10:27:58.422Z,4.10
2023-09-28T10:30:26.866Z,3.33
2023-09-28T10:32:58.973Z,4.03
2023-09-28T10:35:32.841Z,3.00
2023-09-28T10:38:24.378Z,3.13
2023-09-28T10:41:04.274Z,4.53
2023-09-28T10:43:40.244Z,4.27
2023-09-28T10:46:14.260Z,4.47
2023-09-28T10:48:48.170Z,3.90
2023-09-28T10:51:21.706Z,3.90
2023-09-28T10:53:53.182Z,3.60
2023-09-28T10:56:28.821Z,4.60
2023-09-28T10:59:03.059Z,3.33
2023-09-28T11:01:34.799Z,4.80
2023-09-28T11:04:05.325Z,3.97
2023-09-28T11:06:42.605Z,3.87
2023-09-28T11:09:15.708Z,3.23
2023-09-28T11:11:44.995Z,2.93
2023-09-28T11:14:17.162Z,3.30
2023-09-28T11:16:50.846Z,3.27
2023-09-28T11:19:25.277Z,2.80
2023-09-28T11:21:56.894Z,3.20
2023-09-28T11:24:23.716Z,3.90
2023-09-28T11:26:58.057Z,3.00
2023-09-28T11:29:30.077Z,3.27
2023-09-28T11:31:57.119Z,3.17
2023-09-28T11:34:39.310Z,3.50
2023-09-28T11:37:12.536Z,2.70
2023-09-28T11:39:40.486Z,2.50
2023-09-28T11:42:09.654Z,2.80
2023-09-28T11:44:38.276Z,3.00
2023-09-28T11:47:09.253Z,2.97
2023-09-28T11:49:43.933Z,3.20
2023-09-28T11:52:16.247Z,2.60
2023-09-28T11:54:49.255Z,2.97
2023-09-28T11:57:21.771Z,3.30
2023-09-28T11:59:55.721Z,3.13
2023-09-28T12:02:27.681Z,3.10
2023-09-28T12:04:59.533Z,2.63
2023-09-28T12:07:28.639Z,3.00
2023-09-28T12:10:04.535Z,2.43
2023-09-28T12:12:34.859Z,2.60
2023-09-28T12:15:12.331Z,2.90
2023-09-28T12:17:42.537Z,2.37
2023-09-28T12:20:14.048Z,2.50
2023-09-28T12:22:51.456Z,2.40
2023-09-28T12:25:19.534Z,3.07
2023-09-28T12:27:48.858Z,2.70
2023-09-28T12:30:23.819Z,2.33
2023-09-28T12:32:54.745Z,2.90
2023-09-28T12:35:26.643Z,3.23
2023-09-28T12:38:03.894Z,2.57
2023-09-28T12:40:35.554Z,3.10
2023-09-28T12:43:11.208Z,3.63
2023-09-28T12:45:40.551Z,2.50
2023-09-28T12:48:07.501Z,2.40
2023-09-28T12:50:38.781Z,2.03
2023-09-28T12:53:13.186Z,2.03
2023-09-28T12:55:44.955Z,2.30
2023-09-28T12:58:14.883Z,2.43
2023-09-28T13:00:41.842Z,2.60
2023-09-28T13:03:13.634Z,2.80
2023-09-28T13:05:44.098Z,2.87
2023-09-28T13:08:14.836Z,2.93
2023-09-28T13:10:45.403Z,3.03
2023-09-28T13:13:17.172Z,2.37
2023-09-28T13:15:48.901Z,3.13
2023-09-28T13:18:16.540Z,2.97
2023-09-28T13:20:44.697Z,2.93
2023-09-28T13:23:12.372Z,2.57
2023-09-28T13:25:46.759Z,2.60
2023-09-28T13:28:18.386Z,2.73
2023-09-28T13:30:57.300Z,3.20
2023-09-28T13:33:26.701Z,2.70
2023-09-28T13:35:57.336Z,2.70
2023-09-28T13:38:26.624Z,2.07
2023-09-28T13:41:03.549Z,2.43
2023-09-28T13:43:40.009Z,2.10
2023-09-28T13:46:11.451Z,2.80
2023-09-28T13:48:38.428Z,2.70
2023-09-28T13:51:08.270Z,2.67
2023-09-28T13:53:38.654Z,2.47
2023-09-28T13:56:08.770Z,2.17
2023-09-28T13:58:39.834Z,2.17
2023-09-28T14:01:15.390Z,2.07
2023-09-28T14:03:44.790Z,2.87
2023-09-28T14:06:16.279Z,2.30
2023-09-28T14:08:45.553Z,2.60
2023-09-28T14:11:14.970Z,2.57
2023-09-28T14:13:46.670Z,2.30
2023-09-28T14:16:18.676Z,2.40
2023-09-28T14:18:50.469Z,2.27
2023-09-28T14:21:19.493Z,3.00
2023-09-28T14:23:48.564Z,2.83
2023-09-28T14:26:20.086Z,2.87
2023-09-28T14:28:47.581Z,2.43
2023-09-28T14:31:19.128Z,2.30
2023-09-28T14:33:50.774Z,2.27
2023-09-28T14:36:17.698Z,2.57
2023-09-28T14:38:44.664Z,1.97
2023-09-28T14:41:14.480Z,3.30
2023-09-28T14:43:43.834Z,2.00
2023-09-28T14:46:10.766Z,1.77
2023-09-28T14:48:44.378Z,1.87
2023-09-28T14:51:13.958Z,1.90
2023-09-28T14:53:46.955Z,2.23
2023-09-28T14:56:20.531Z,1.83
2023-09-28T14:58:49.915Z,1.67
2023-09-28T15:01:19.283Z,2.10
2023-09-28T15:03:46.288Z,2.30
2023-09-28T15:06:13.436Z,2.73
2023-09-28T15:08:42.929Z,2.97
2023-09-28T15:11:22.352Z,2.20
2023-09-28T15:13:51.570Z,2.17
2023-09-28T15:16:21.098Z,2.00
2023-09-28T15:18:52.762Z,2.63
2023-09-28T15:21:24.548Z,1.93
2023-09-28T15:23:54.616Z,2.43
2023-09-28T15:26:24.106Z,1.70
2023-09-28T15:28:55.893Z,2.17
2023-09-28T15:31:27.697Z,1.93
2023-09-28T15:33:57.248Z,1.70
2023-09-28T15:36:30.220Z,2.70
2023-09-28T15:38:57.549Z,1.83
2023-09-28T15:41:45.246Z,2.20
2023-09-28T15:44:14.521Z,2.03
2023-09-28T15:46:48.726Z,1.80
2023-09-28T15:49:16.217Z,1.60
2023-09-28T15:51:47.821Z,2.20
2023-09-28T15:54:14.636Z,1.60
2023-09-28T15:56:41.523Z,1.90
2023-09-28T15:59:10.894Z,1.97
2023-09-28T16:01:42.525Z,2.30
2023-09-28T16:04:14.409Z,1.67
2023-09-28T16:06:43.872Z,2.57
2023-09-28T16:09:20.354Z,2.27
2023-09-28T16:11:47.256Z,2.70
2023-09-28T16:14:14.190Z,2.27
2023-09-28T16:16:43.340Z,2.40
2023-09-28T16:19:13.047Z,2.30
2023-09-28T16:21:42.232Z,2.20
2023-09-28T16:24:11.644Z,1.73
2023-09-28T16:26:38.605Z,1.70
2023-09-28T16:29:07.973Z,3.30
2023-09-28T16:31:41.862Z,4.00
2023-09-28T16:34:11.819Z,4.70
2023-09-28T16:36:48.271Z,3.57
2023-09-28T16:39:18.225Z,2.90
2023-09-28T16:41:49.611Z,16.43
2023-09-28T16:44:21.003Z,17.50
2023-09-28T16:46:51.396Z,11.67
2023-09-28T16:49:22.946Z,7.80
2023-09-28T16:51:49.870Z,6.77
2023-09-28T16:54:18.864Z,5.23
2023-09-28T16:56:45.769Z,5.00
2023-09-28T16:59:17.554Z,4.17
2023-09-28T17:01:49.142Z,6.67
2023-09-28T17:04:18.618Z,8.10
2023-09-28T17:06:48.006Z,7.73
2023-09-28T17:09:19.626Z,6.37
2023-09-28T17:11:51.736Z,5.40
2023-09-28T17:14:23.328Z,10.63
2023-09-28T17:16:52.328Z,16.07
2023-09-28T17:19:19.558Z,12.30
2023-09-28T17:21:46.430Z,8.23
2023-09-28T17:24:20.739Z,6.00
2023-09-28T17:26:47.587Z,5.77
2023-09-28T17:29:16.934Z,5.10
2023-09-28T17:31:51.412Z,4.23
2023-09-28T17:34:18.314Z,3.90
2023-09-28T17:36:48.908Z,3.63
2023-09-28T17:39:17.978Z,5.00
2023-09-28T17:41:49.576Z,6.40
2023-09-28T17:44:21.886Z,7.60
2023-09-28T17:46:51.116Z,6.10
2023-09-28T17:49:20.174Z,7.77
2023-09-28T17:51:51.725Z,4.20
2023-09-28T17:54:21.117Z,3.40
2023-09-28T17:56:48.111Z,26.03
2023-09-28T17:59:21.419Z,25.10
2023-09-28T18:01:53.116Z,14.60
2023-09-28T18:04:22.350Z,10.70
2023-09-28T18:06:51.592Z,9.67
2023-09-28T18:09:22.203Z,9.67
2023-09-28T18:11:51.486Z,7.17
2023-09-28T18:14:18.444Z,4.60
2023-09-28T18:16:45.712Z,3.27
2023-09-28T18:19:17.312Z,2.90
2023-09-28T18:21:46.758Z,2.63
2023-09-28T18:24:15.833Z,4.23
2023-09-28T18:26:45.282Z,4.10
2023-09-28T18:29:14.267Z,3.73
2023-09-28T18:31:50.846Z,6.13
2023-09-28T18:34:19.855Z,4.50
2023-09-28T18:36:49.209Z,2.57
2023-09-28T18:39:22.807Z,4.40
2023-09-28T18:41:52.107Z,3.70
2023-09-28T18:44:23.812Z,3.90
2023-09-28T18:46:52.945Z,2.67
2023-09-28T18:49:22.308Z,2.87
2023-09-28T18:51:56.315Z,2.53
2023-09-28T18:54:31.043Z,3.00
2023-09-28T18:57:02.429Z,2.77
2023-09-28T18:59:29.347Z,2.50
2023-09-28T19:02:01.446Z,2.70
2023-09-28T19:04:35.682Z,2.80
2023-09-28T19:07:03.177Z,3.13
2023-09-28T19:09:34.553Z,3.67
2023-09-28T19:12:02.472Z,3.30
2023-09-28T19:14:29.639Z,3.83
2023-09-28T19:17:03.390Z,3.23
2023-09-28T19:19:34.993Z,3.57
2023-09-28T19:22:04.319Z,3.77
2023-09-28T19:24:33.400Z,4.07
2023-09-28T19:27:03.889Z,3.60
2023-09-28T19:29:38.497Z,4.97
2023-09-28T19:32:06.369Z,4.50
2023-09-28T19:34:37.854Z,4.30
2023-09-28T19:37:09.026Z,4.33
2023-09-28T19:39:43.269Z,4.10
2023-09-28T19:42:13.094Z,4.23
2023-09-28T19:44:48.159Z,3.63
2023-09-28T19:47:17.118Z,3.70
2023-09-28T19:49:44.182Z,3.47
2023-09-28T19:52:14.027Z,3.50
2023-09-28T19:54:43.434Z,3.53
2023-09-28T19:57:12.553Z,3.60
2023-09-28T19:59:49.840Z,3.47
2023-09-28T20:02:21.727Z,2.90
2023-09-28T20:04:48.640Z,2.97
2023-09-28T20:07:20.224Z,3.10
2023-09-28T20:09:49.301Z,3.50
2023-09-28T20:12:17.654Z,3.00
2023-09-28T20:14:49.635Z,2.73
2023-09-28T20:17:23.710Z,2.50
2023-09-28T20:19:58.061Z,2.07
2023-09-28T20:22:38.338Z,3.00
2023-09-28T20:25:15.361Z,3.60
2023-09-28T20:27:47.090Z,2.77
2023-09-28T20:30:17.973Z,2.70
2023-09-28T20:32:47.992Z,2.23
2023-09-28T20:35:17.602Z,3.00
2023-09-28T20:37:48.755Z,2.37
2023-09-28T20:40:18.140Z,2.33
2023-09-28T20:42:45.892Z,2.30
2023-09-28T20:45:13.317Z,2.93
2023-09-28T20:47:42.526Z,2.73
2023-09-28T20:50:16.167Z,3.27
2023-09-28T20:52:43.191Z,3.40
2023-09-28T20:55:10.994Z,3.23
2023-09-28T20:57:42.724Z,3.97
2023-09-28T21:00:15.146Z,3.60
2023-09-28T21:02:49.498Z,2.93
2023-09-28T21:05:26.654Z,3.13
2023-09-28T21:07:58.180Z,3.00
2023-09-28T21:10:30.293Z,2.93
2023-09-28T21:13:02.570Z,2.97
2023-09-28T21:15:31.942Z,3.30
2023-09-28T21:18:06.234Z,4.40
2023-09-28T21:20:35.459Z,4.47
2023-09-28T21:23:02.330Z,21.67
2023-09-28T21:25:31.420Z,25.80
2023-09-28T21:28:02.878Z,21.27
2023-09-28T21:30:32.056Z,19.60
2023-09-28T21:33:01.561Z,18.80
2023-09-28T21:35:28.795Z,14.93
2023-09-28T21:38:00.417Z,11.83
2023-09-28T21:40:30.069Z,8.63
2023-09-28T21:42:59.247Z,7.70
2023-09-28T21:45:28.527Z,7.00
2023-09-28T21:47:55.826Z,6.47
2023-09-28T21:50:24.978Z,3.93
2023-09-28T21:52:58.942Z,3.97
2023-09-28T21:55:28.301Z,4.20
2023-09-28T21:57:58.176Z,4.23
2023-09-28T22:00:33.615Z,3.87
2023-09-28T22:03:04.816Z,4.40
2023-09-28T22:05:36.978Z,3.80
2023-09-28T22:08:11.370Z,3.23
2023-09-28T22:10:44.776Z,4.17
2023-09-28T22:13:13.862Z,4.10
2023-09-28T22:15:46.528Z,4.20
2023-09-28T22:18:19.139Z,4.20
2023-09-28T22:20:48.306Z,5.10
2023-09-28T22:23:20.432Z,3.97
2023-09-28T22:25:52.646Z,4.47
2023-09-28T22:28:22.085Z,4.60
2023-09-28T22:30:49.073Z,4.20
2023-09-28T22:33:20.936Z,4.83
2023-09-28T22:35:48.016Z,3.37
2023-09-28T22:38:20.729Z,3.50
2023-09-28T22:40:54.993Z,4.33
2023-09-28T22:43:26.342Z,4.00
2023-09-28T22:45:58.680Z,3.40
2023-09-28T22:48:30.649Z,3.87
2023-09-28T22:51:07.242Z,4.40
2023-09-28T22:53:44.311Z,4.50
2023-09-28T22:56:15.601Z,3.80
2023-09-28T22:58:44.940Z,4.27
2023-09-28T23:01:14.166Z,4.50
2023-09-28T23:03:43.544Z,4.57
2023-09-28T23:06:10.449Z,4.10
2023-09-28T23:08:37.395Z,4.40
2023-09-28T23:11:12.167Z,4.30
2023-09-28T23:13:42.264Z,3.80
2023-09-28T23:16:10.311Z,3.73
2023-09-28T23:18:39.391Z,4.20
2023-09-28T23:21:10.982Z,4.57
2023-09-28T23:23:39.855Z,4.13
2023-09-28T23:26:11.924Z,4.87
2023-09-28T23:28:43.662Z,3.50
2023-09-28T23:31:15.013Z,3.90
2023-09-28T23:33:44.575Z,3.73
2023-09-28T23:36:16.835Z,3.70
2023-09-28T23:38:47.810Z,4.30
2023-09-28T23:41:21.737Z,3.80
2023-09-28T23:43:48.580Z,3.80
2023-09-28T23:46:15.660Z,4.00
2023-09-28T23:48:42.776Z,3.80
2023-09-28T23:51:11.010Z,3.97
2023-09-28T23:53:41.495Z,3.40
2023-09-28T23:56:08.568Z,3.40
2023-09-28T23:58:38.535Z,4.37
